createdAt,value
2018-01-19T00:00:54.249Z,4.73
2018-01-19T00:03:20.291Z,3.30
2018-01-19T00:05:46.287Z,5.13
2018-01-19T00:08:12.301Z,3.80
2018-01-19T00:10:38.413Z,3.73
2018-01-19T00:13:04.411Z,3.93
2018-01-19T00:15:30.464Z,3.67
2018-01-19T00:17:56.548Z,6.50
2018-01-19T00:20:22.623Z,4.00
2018-01-19T00:22:48.652Z,8.03
2018-01-19T00:25:14.663Z,3.80
2018-01-19T00:27:40.697Z,2.97
2018-01-19T00:30:06.704Z,3.10
2018-01-19T00:32:32.725Z,2.90
2018-01-19T00:34:59.096Z,5.07
2018-01-19T00:37:25.089Z,2.80
2018-01-19T00:39:51.119Z,2.60
2018-01-19T00:42:17.139Z,3.93
2018-01-19T00:44:43.161Z,2.10
2018-01-19T00:47:09.281Z,2.20
2018-01-19T00:49:35.270Z,3.97
2018-01-19T00:52:01.276Z,5.03
2018-01-19T00:54:27.314Z,4.27
2018-01-19T00:56:53.309Z,4.70
2018-01-19T00:59:19.343Z,3.87
2018-01-19T01:01:45.315Z,3.70
2018-01-19T01:04:11.356Z,3.53
2018-01-19T01:06:37.376Z,6.00
2018-01-19T01:09:03.352Z,3.53
2018-01-19T01:11:29.408Z,2.43
2018-01-19T01:13:55.369Z,3.93
2018-01-19T01:16:21.369Z,5.00
2018-01-19T01:18:47.660Z,3.00
2018-01-19T01:21:13.652Z,1.93
2018-01-19T01:23:39.621Z,6.43
2018-01-19T01:26:05.564Z,1.50
2018-01-19T01:28:31.585Z,4.77
2018-01-19T01:30:57.616Z,2.20
2018-01-19T01:33:23.633Z,3.80
2018-01-19T01:35:49.635Z,3.17
2018-01-19T01:38:15.688Z,3.27
2018-01-19T01:40:41.711Z,3.33
2018-01-19T01:43:07.744Z,3.43
2018-01-19T01:45:33.783Z,3.67
2018-01-19T01:47:59.797Z,5.27
2018-01-19T01:50:25.816Z,3.67
2018-01-19T01:52:51.869Z,3.80
2018-01-19T01:55:17.847Z,2.63
2018-01-19T01:57:43.843Z,2.30
2018-01-19T02:00:09.876Z,2.50
2018-01-19T02:02:35.895Z,2.87
2018-01-19T02:05:01.973Z,1.90
2018-01-19T02:07:28.025Z,3.30
2018-01-19T02:09:54.053Z,2.70
2018-01-19T02:12:20.089Z,2.37
2018-01-19T02:14:46.109Z,2.03
2018-01-19T02:17:12.101Z,5.10
2018-01-19T02:19:38.297Z,3.10
2018-01-19T02:22:04.277Z,13.10
2018-01-19T02:24:30.277Z,4.00
2018-01-19T02:26:56.296Z,1.67
2018-01-19T02:29:22.337Z,3.97
2018-01-19T02:31:48.712Z,1.63
2018-01-19T02:34:14.745Z,3.57
2018-01-19T02:36:40.756Z,3.27
2018-01-19T02:39:06.855Z,4.03
2018-01-19T02:41:32.895Z,8.70
2018-01-19T02:43:58.945Z,7.63
2018-01-19T02:46:24.969Z,7.17
2018-01-19T02:48:51.045Z,3.23
2018-01-19T02:51:17.034Z,2.60
2018-01-19T02:53:43.033Z,6.23
2018-01-19T02:56:09.365Z,3.20
2018-01-19T02:58:35.368Z,4.07
2018-01-19T03:01:01.393Z,3.27
2018-01-19T03:03:27.443Z,4.23
2018-01-19T03:05:53.444Z,3.93
2018-01-19T03:08:19.493Z,6.00
2018-01-19T03:10:45.505Z,4.20
2018-01-19T03:13:11.524Z,6.37
2018-01-19T03:15:37.540Z,6.10
2018-01-19T03:18:03.561Z,3.47
2018-01-19T03:20:29.575Z,5.30
2018-01-19T03:22:55.567Z,6.03
2018-01-19T03:25:21.604Z,3.07
2018-01-19T03:27:47.623Z,6.40
2018-01-19T03:30:13.661Z,3.80
2018-01-19T03:32:39.724Z,3.87
2018-01-19T03:35:05.714Z,4.63
2018-01-19T03:37:31.723Z,4.00
2018-01-19T03:39:57.745Z,3.57
2018-01-19T03:42:23.718Z,3.20
2018-01-19T03:44:49.810Z,5.60
2018-01-19T03:47:15.892Z,3.10
2018-01-19T03:49:41.905Z,3.30
2018-01-19T03:52:07.984Z,3.27
2018-01-19T03:54:33.966Z,4.03
2018-01-19T03:56:59.997Z,3.40
2018-01-19T03:59:26.016Z,2.87
2018-01-19T04:01:52.009Z,3.03
2018-01-19T04:04:18.028Z,2.80
2018-01-19T04:06:44.064Z,4.17
2018-01-19T04:09:10.044Z,2.43
2018-01-19T04:11:36.101Z,3.53
2018-01-19T04:14:02.585Z,2.50
2018-01-19T04:16:28.630Z,3.33
2018-01-19T04:18:54.932Z,2.67
2018-01-19T04:21:20.933Z,4.37
2018-01-19T04:23:46.957Z,4.77
2018-01-19T04:26:13.069Z,3.87
2018-01-19T04:28:39.087Z,3.53
2018-01-19T04:31:05.072Z,3.70
2018-01-19T04:33:31.108Z,2.90
2018-01-19T04:35:57.123Z,3.00
2018-01-19T04:38:23.137Z,3.10
2018-01-19T04:40:49.173Z,3.57
2018-01-19T04:43:15.236Z,3.43
2018-01-19T04:45:41.616Z,5.03
2018-01-19T04:48:08.044Z,3.93
2018-01-19T04:50:34.152Z,3.83
2018-01-19T04:53:00.475Z,3.47
2018-01-19T04:55:26.428Z,3.50
2018-01-19T04:57:52.471Z,3.57
2018-01-19T05:00:18.512Z,3.80
2018-01-19T05:02:44.522Z,4.30
2018-01-19T05:05:10.552Z,9.67
2018-01-19T05:07:36.588Z,21.17
2018-01-19T05:10:02.623Z,3.80
2018-01-19T05:12:29.045Z,4.77
2018-01-19T05:14:55.077Z,6.20
2018-01-19T05:17:21.088Z,5.33
2018-01-19T05:19:47.080Z,3.50
2018-01-19T05:22:13.095Z,3.63
2018-01-19T05:24:39.143Z,3.93
2018-01-19T05:27:05.193Z,6.17
2018-01-19T05:29:31.227Z,3.47
2018-01-19T05:31:57.209Z,3.13
2018-01-19T05:34:23.215Z,5.67
2018-01-19T05:36:49.240Z,5.33
2018-01-19T05:39:15.248Z,3.50
2018-01-19T05:41:41.329Z,5.20
2018-01-19T05:44:07.471Z,6.20
2018-01-19T05:46:33.481Z,4.67
2018-01-19T05:48:59.463Z,3.43
2018-01-19T05:51:25.503Z,4.30
2018-01-19T05:53:51.532Z,12.00
2018-01-19T05:56:17.543Z,7.83
2018-01-19T05:58:43.942Z,4.60
2018-01-19T06:01:10.045Z,4.43
2018-01-19T06:03:36.017Z,4.70
2018-01-19T06:06:02.113Z,2.67
2018-01-19T06:08:28.128Z,2.80
2018-01-19T06:10:54.168Z,3.07
2018-01-19T06:13:20.216Z,2.83
2018-01-19T06:15:46.216Z,2.67
2018-01-19T06:18:12.224Z,2.50
2018-01-19T06:20:38.315Z,2.70
2018-01-19T06:23:04.337Z,2.70
2018-01-19T06:25:30.381Z,2.10
2018-01-19T06:27:56.369Z,2.60
2018-01-19T06:30:22.796Z,2.70
2018-01-19T06:32:48.897Z,1.70
2018-01-19T06:35:14.975Z,2.57
2018-01-19T06:37:41.051Z,1.97
2018-01-19T06:40:07.064Z,1.80
2018-01-19T06:42:33.149Z,2.23
2018-01-19T06:44:59.169Z,5.27
2018-01-19T06:47:25.212Z,2.53
2018-01-19T06:49:51.292Z,2.80
2018-01-19T06:52:17.612Z,3.60
2018-01-19T06:54:43.632Z,3.07
2018-01-19T06:57:09.629Z,9.00
2018-01-19T06:59:35.664Z,3.40
2018-01-19T07:02:01.724Z,2.90
2018-01-19T07:04:28.060Z,7.53
2018-01-19T07:06:54.072Z,4.00
2018-01-19T07:09:20.077Z,3.83
2018-01-19T07:11:46.089Z,3.57
2018-01-19T07:14:12.076Z,4.20
2018-01-19T07:16:38.042Z,3.67
2018-01-19T07:19:04.008Z,2.80
2018-01-19T07:21:29.966Z,3.53
2018-01-19T07:23:56.007Z,2.80
2018-01-19T07:26:22.012Z,2.60
2018-01-19T07:28:48.305Z,3.17
2018-01-19T07:31:14.367Z,2.30
2018-01-19T07:33:40.371Z,2.53
2018-01-19T07:36:06.404Z,1.90
2018-01-19T07:38:32.461Z,2.30
2018-01-19T07:40:58.517Z,2.50
2018-01-19T07:43:24.528Z,1.80
2018-01-19T07:45:50.625Z,8.70
2018-01-19T07:48:16.659Z,3.80
2018-01-19T07:50:42.701Z,3.00
2018-01-19T07:53:08.768Z,2.90
2018-01-19T07:55:34.779Z,3.27
2018-01-19T07:58:00.832Z,2.93
2018-01-19T08:00:26.867Z,2.30
2018-01-19T08:02:52.928Z,2.33
2018-01-19T08:05:18.924Z,3.23
2018-01-19T08:07:44.900Z,3.17
2018-01-19T08:10:11.001Z,6.33
2018-01-19T08:12:37.000Z,5.63
2018-01-19T08:15:04.240Z,4.60
2018-01-19T08:17:30.260Z,2.73
2018-01-19T08:19:56.361Z,2.70
2018-01-19T08:22:22.384Z,3.57
2018-01-19T08:24:48.426Z,4.17
2018-01-19T08:27:14.580Z,2.47
2018-01-19T08:29:40.607Z,2.23
2018-01-19T08:32:06.708Z,2.70
2018-01-19T08:34:32.765Z,3.90
2018-01-19T08:36:58.809Z,4.40
2018-01-19T08:39:24.836Z,5.03
2018-01-19T08:41:50.884Z,14.70
2018-01-19T08:44:16.998Z,12.40
2018-01-19T08:46:43.079Z,13.50
2018-01-19T08:49:09.103Z,7.83
2018-01-19T08:51:35.282Z,3.93
2018-01-19T08:54:01.336Z,3.30
2018-01-19T08:56:27.371Z,2.80
2018-01-19T08:58:53.444Z,4.10
2018-01-19T09:01:19.447Z,3.83
2018-01-19T09:03:45.458Z,3.10
2018-01-19T09:06:11.485Z,2.30
2018-01-19T09:08:37.508Z,2.50
2018-01-19T09:11:03.568Z,2.97
2018-01-19T09:13:29.629Z,4.40
2018-01-19T09:15:55.669Z,2.20
2018-01-19T09:18:21.672Z,2.40
2018-01-19T09:20:47.696Z,2.27
2018-01-19T09:23:13.689Z,3.77
2018-01-19T09:25:40.021Z,2.73
2018-01-19T09:28:06.005Z,2.20
2018-01-19T09:30:31.998Z,2.60
2018-01-19T09:32:58.035Z,4.63
2018-01-19T09:35:24.003Z,2.37
2018-01-19T09:37:50.048Z,2.20
2018-01-19T09:40:16.052Z,6.83
2018-01-19T09:42:42.057Z,2.30
2018-01-19T09:45:08.118Z,3.47
2018-01-19T09:47:34.109Z,4.10
2018-01-19T09:50:00.137Z,4.30
2018-01-19T09:52:26.167Z,2.50
2018-01-19T09:54:52.180Z,3.10
2018-01-19T09:57:18.221Z,2.80
2018-01-19T09:59:44.197Z,2.30
2018-01-19T10:02:10.204Z,5.70
2018-01-19T10:04:36.248Z,3.90
2018-01-19T10:07:02.245Z,2.80
2018-01-19T10:09:28.260Z,3.20
2018-01-19T10:11:54.239Z,2.60
2018-01-19T10:14:20.219Z,2.50
2018-01-19T10:16:46.265Z,3.47
2018-01-19T10:19:12.219Z,3.10
2018-01-19T10:21:38.252Z,2.87
2018-01-19T10:24:04.388Z,2.57
2018-01-19T10:26:30.435Z,3.03
2018-01-19T10:28:56.469Z,2.60
2018-01-19T10:31:22.504Z,3.47
2018-01-19T10:33:48.600Z,2.90
2018-01-19T10:36:14.568Z,2.30
2018-01-19T10:38:40.684Z,2.30
2018-01-19T10:41:06.724Z,3.37
2018-01-19T10:43:32.724Z,2.90
2018-01-19T10:45:58.848Z,1.83
2018-01-19T10:48:24.844Z,5.50
2018-01-19T10:50:50.862Z,2.27
2018-01-19T10:53:16.885Z,2.10
2018-01-19T10:55:43.008Z,1.63
2018-01-19T10:58:09.024Z,1.80
2018-01-19T11:00:35.096Z,2.13
2018-01-19T11:03:01.156Z,2.03
2018-01-19T11:05:27.196Z,2.40
2018-01-19T11:07:53.244Z,9.40
2018-01-19T11:10:19.333Z,1.70
2018-01-19T11:12:45.396Z,1.47
2018-01-19T11:15:11.389Z,1.93
2018-01-19T11:17:37.461Z,2.27
2018-01-19T11:20:03.708Z,1.70
2018-01-19T11:22:29.723Z,1.87
2018-01-19T11:24:55.768Z,3.20
2018-01-19T11:27:21.805Z,3.03
2018-01-19T11:29:47.796Z,3.50
2018-01-19T11:32:13.772Z,2.53
2018-01-19T11:34:39.757Z,3.90
2018-01-19T11:37:05.840Z,2.40
2018-01-19T11:39:31.853Z,2.07
2018-01-19T11:41:57.865Z,2.20
2018-01-19T11:44:23.857Z,3.00
2018-01-19T11:46:50.302Z,2.00
2018-01-19T11:49:16.377Z,1.97
2018-01-19T11:51:42.443Z,2.27
2018-01-19T11:54:08.533Z,2.10
2018-01-19T11:56:34.564Z,2.37
2018-01-19T11:59:00.583Z,1.83
2018-01-19T12:01:26.609Z,2.30
2018-01-19T12:03:52.618Z,2.63
2018-01-19T12:06:18.617Z,1.77
2018-01-19T12:08:44.603Z,2.67
2018-01-19T12:11:10.649Z,1.50
2018-01-19T12:13:36.642Z,2.30
2018-01-19T12:16:02.653Z,2.40
2018-01-19T12:18:28.815Z,2.60
2018-01-19T12:20:54.833Z,1.80
2018-01-19T12:23:20.925Z,1.83
2018-01-19T12:25:46.952Z,2.30
2018-01-19T12:28:12.958Z,2.20
2018-01-19T12:30:38.987Z,2.30
2018-01-19T12:33:05.016Z,1.60
2018-01-19T12:35:31.026Z,2.30
2018-01-19T12:37:57.072Z,2.13
2018-01-19T12:40:23.077Z,3.47
2018-01-19T12:42:49.102Z,2.00
2018-01-19T12:45:15.085Z,2.17
2018-01-19T12:47:41.046Z,2.50
2018-01-19T12:50:07.082Z,3.10
2018-01-19T12:52:33.086Z,3.47
2018-01-19T12:54:59.121Z,5.87
2018-01-19T12:57:25.122Z,2.60
2018-01-19T12:59:51.280Z,3.83
2018-01-19T13:02:17.278Z,3.57
2018-01-19T13:04:43.300Z,4.03
2018-01-19T13:07:09.351Z,5.53
2018-01-19T13:09:35.356Z,4.57
2018-01-19T13:12:01.353Z,2.93
2018-01-19T13:14:27.403Z,3.00
2018-01-19T13:16:53.476Z,3.80
2018-01-19T13:19:19.553Z,8.00
2018-01-19T13:21:45.558Z,4.03
2018-01-19T13:24:11.569Z,6.50
2018-01-19T13:26:37.569Z,4.00
2018-01-19T13:29:03.639Z,6.00
2018-01-19T13:31:29.717Z,2.93
2018-01-19T13:33:55.748Z,2.97
2018-01-19T13:36:21.741Z,2.57
2018-01-19T13:38:47.777Z,3.10
2018-01-19T13:41:13.920Z,8.80
2018-01-19T13:43:39.964Z,2.50
2018-01-19T13:46:06.083Z,3.20
2018-01-19T13:48:32.210Z,3.13
2018-01-19T13:50:58.232Z,2.20
2018-01-19T13:53:24.283Z,4.67
2018-01-19T13:55:50.813Z,3.83
2018-01-19T13:58:16.863Z,3.00
2018-01-19T14:00:43.079Z,4.40
2018-01-19T14:03:09.154Z,4.40
2018-01-19T14:05:35.265Z,3.30
2018-01-19T14:08:01.301Z,3.83
2018-01-19T14:10:27.304Z,3.47
2018-01-19T14:12:53.404Z,5.03
2018-01-19T14:15:19.453Z,4.20
2018-01-19T14:17:45.477Z,3.30
2018-01-19T14:20:11.704Z,3.40
2018-01-19T14:22:37.705Z,4.57
2018-01-19T14:25:03.916Z,4.90
2018-01-19T14:27:29.947Z,12.77
2018-01-19T14:29:56.049Z,7.10
2018-01-19T14:32:22.242Z,9.00
2018-01-19T14:34:48.290Z,9.30
2018-01-19T14:37:14.325Z,2.30
2018-01-19T14:39:40.466Z,3.10
2018-01-19T14:42:06.493Z,3.23
2018-01-19T14:44:32.541Z,5.23
2018-01-19T14:46:58.558Z,3.93
2018-01-19T14:49:24.636Z,4.13
2018-01-19T14:51:50.770Z,4.93
2018-01-19T14:54:16.819Z,5.43
2018-01-19T14:56:42.841Z,5.40
2018-01-19T14:59:08.864Z,13.30
2018-01-19T15:01:34.935Z,5.63
2018-01-19T15:04:01.010Z,7.50
2018-01-19T15:06:27.072Z,12.83
2018-01-19T15:08:53.208Z,6.00
2018-01-19T15:11:19.232Z,3.33
2018-01-19T15:13:45.698Z,6.97
2018-01-19T15:16:11.791Z,5.40
2018-01-19T15:18:38.216Z,4.27
2018-01-19T15:21:04.320Z,3.60
2018-01-19T15:23:30.353Z,3.00
2018-01-19T15:25:56.413Z,6.50
2018-01-19T15:28:22.438Z,3.97
2018-01-19T15:30:48.513Z,3.90
2018-01-19T15:33:14.507Z,3.73
2018-01-19T15:35:40.557Z,6.67
2018-01-19T15:38:06.612Z,4.63
2018-01-19T15:40:32.656Z,4.30
2018-01-19T15:42:58.661Z,3.87
2018-01-19T15:45:24.692Z,7.23
2018-01-19T15:47:50.891Z,6.73
2018-01-19T15:50:17.384Z,3.10
2018-01-19T15:52:43.437Z,7.33
2018-01-19T15:55:09.546Z,5.07
2018-01-19T15:57:35.526Z,5.00
2018-01-19T16:00:01.833Z,4.73
2018-01-19T16:02:27.857Z,46.87
2018-01-19T16:04:53.954Z,61.53
2018-01-19T16:07:20.369Z,10.57
2018-01-19T16:09:46.423Z,13.90
2018-01-19T16:12:12.513Z,6.10
2018-01-19T16:14:38.524Z,10.13
2018-01-19T16:17:04.577Z,3.83
2018-01-19T16:19:30.625Z,10.13
2018-01-19T16:21:56.785Z,16.07
2018-01-19T16:24:22.794Z,18.40
2018-01-19T16:26:48.821Z,19.97
2018-01-19T16:29:14.890Z,20.97
2018-01-19T16:31:40.885Z,20.80
2018-01-19T16:34:06.963Z,23.23
2018-01-19T16:36:32.980Z,17.97
2018-01-19T16:38:58.995Z,19.03
2018-01-19T16:41:25.110Z,17.43
2018-01-19T16:43:51.149Z,12.83
2018-01-19T16:46:17.357Z,10.60
2018-01-19T16:48:43.424Z,7.23
2018-01-19T16:51:09.385Z,9.37
2018-01-19T16:53:35.439Z,12.93
2018-01-19T16:56:01.492Z,8.83
2018-01-19T16:58:27.530Z,8.63
2018-01-19T17:00:53.577Z,7.27
2018-01-19T17:03:19.652Z,10.80
2018-01-19T17:05:45.688Z,8.80
2018-01-19T17:08:11.714Z,13.47
2018-01-19T17:10:37.801Z,15.47
2018-01-19T17:13:03.812Z,10.63
2018-01-19T17:15:29.829Z,11.93
2018-01-19T17:17:55.949Z,9.03
2018-01-19T17:20:21.997Z,10.50
2018-01-19T17:22:48.006Z,12.33
2018-01-19T17:25:14.064Z,10.27
2018-01-19T17:27:40.102Z,12.53
2018-01-19T17:30:06.224Z,12.57
2018-01-19T17:32:32.268Z,18.70
2018-01-19T17:34:58.277Z,13.30
2018-01-19T17:37:24.330Z,14.50
2018-01-19T17:39:50.580Z,6.17
2018-01-19T17:42:16.692Z,6.13
2018-01-19T17:44:42.743Z,6.00
2018-01-19T17:47:08.836Z,7.60
2018-01-19T17:49:34.861Z,9.67
2018-01-19T17:52:00.877Z,11.40
2018-01-19T17:54:26.896Z,6.60
2018-01-19T17:56:52.950Z,6.10
2018-01-19T17:59:18.983Z,9.90
2018-01-19T18:01:45.110Z,9.53
2018-01-19T18:04:11.132Z,7.03
2018-01-19T18:06:37.185Z,8.63
2018-01-19T18:09:03.209Z,12.50
2018-01-19T18:11:29.232Z,12.43
2018-01-19T18:13:55.369Z,12.57
2018-01-19T18:16:21.380Z,12.83
2018-01-19T18:18:47.414Z,8.40
2018-01-19T18:21:13.444Z,10.47
2018-01-19T18:23:39.496Z,11.90
2018-01-19T18:26:05.607Z,11.77
2018-01-19T18:28:31.656Z,7.27
2018-01-19T18:30:57.731Z,6.13
2018-01-19T18:33:23.772Z,7.97
2018-01-19T18:35:49.856Z,8.23
2018-01-19T18:38:15.906Z,13.00
2018-01-19T18:40:41.929Z,9.87
2018-01-19T18:43:08.009Z,7.83
2018-01-19T18:45:34.093Z,7.60
2018-01-19T18:48:00.160Z,8.37
2018-01-19T18:50:26.519Z,9.73
2018-01-19T18:52:52.559Z,8.63
2018-01-19T18:55:18.606Z,9.87
2018-01-19T18:57:44.638Z,46.67
2018-01-19T19:00:10.689Z,37.80
2018-01-19T19:02:36.680Z,20.57
2018-01-19T19:05:02.762Z,42.07
2018-01-19T19:07:28.766Z,24.60
2018-01-19T19:09:54.833Z,34.90
2018-01-19T19:12:20.928Z,59.57
2018-01-19T19:14:46.955Z,164.03
2018-01-19T19:17:12.976Z,136.87
2018-01-19T19:19:39.029Z,102.90
2018-01-19T19:22:05.056Z,106.17
2018-01-19T19:24:31.108Z,79.50
2018-01-19T19:26:57.165Z,60.67
2018-01-19T19:29:23.211Z,57.03
2018-01-19T19:31:49.295Z,35.50
2018-01-19T19:34:15.376Z,57.90
2018-01-19T19:36:41.409Z,40.90
2018-01-19T19:39:07.515Z,30.47
2018-01-19T19:41:33.525Z,23.73
2018-01-19T19:43:59.606Z,18.47
2018-01-19T19:46:25.661Z,18.27
2018-01-19T19:48:51.708Z,23.37
2018-01-19T19:51:17.698Z,18.77
2018-01-19T19:53:43.770Z,14.87
2018-01-19T19:56:09.843Z,11.13
2018-01-19T19:58:35.881Z,12.87
2018-01-19T20:01:02.239Z,12.27
2018-01-19T20:03:28.318Z,11.87
2018-01-19T20:05:54.320Z,12.13
2018-01-19T20:08:20.380Z,9.40
2018-01-19T20:10:46.419Z,12.80
2018-01-19T20:13:12.492Z,10.03
2018-01-19T20:15:38.594Z,14.00
2018-01-19T20:18:04.606Z,10.67
2018-01-19T20:20:30.742Z,17.00
2018-01-19T20:22:56.776Z,11.43
2018-01-19T20:25:23.143Z,15.10
2018-01-19T20:27:49.223Z,13.87
2018-01-19T20:30:15.280Z,16.40
2018-01-19T20:32:41.380Z,16.23
2018-01-19T20:35:07.397Z,12.50
2018-01-19T20:37:33.502Z,17.37
2018-01-19T20:39:59.507Z,15.63
2018-01-19T20:42:25.570Z,16.07
2018-01-19T20:44:51.657Z,13.23
2018-01-19T20:47:17.712Z,13.43
2018-01-19T20:49:43.807Z,14.70
2018-01-19T20:52:09.813Z,14.10
2018-01-19T20:54:35.896Z,16.07
2018-01-19T20:57:01.976Z,13.20
2018-01-19T20:59:28.873Z,14.20
2018-01-19T21:01:54.977Z,21.30
2018-01-19T21:04:21.051Z,12.63
2018-01-19T21:06:47.067Z,9.80
2018-01-19T21:09:13.058Z,9.70
2018-01-19T21:11:39.066Z,10.73
2018-01-19T21:14:05.160Z,12.50
2018-01-19T21:16:31.184Z,22.33
2018-01-19T21:18:57.226Z,24.77
2018-01-19T21:21:23.273Z,12.93
2018-01-19T21:23:49.429Z,14.60
2018-01-19T21:26:15.444Z,15.53
2018-01-19T21:28:41.445Z,11.57
2018-01-19T21:31:07.617Z,9.23
2018-01-19T21:33:33.696Z,17.10
2018-01-19T21:35:59.815Z,17.17
2018-01-19T21:38:26.047Z,11.80
2018-01-19T21:40:52.119Z,15.73
2018-01-19T21:43:18.065Z,13.73
2018-01-19T21:45:44.116Z,13.90
2018-01-19T21:48:10.278Z,11.90
2018-01-19T21:50:36.315Z,13.23
2018-01-19T21:53:02.364Z,10.40
2018-01-19T21:55:28.379Z,10.23
2018-01-19T21:57:55.655Z,10.23
2018-01-19T22:00:21.739Z,11.33
2018-01-19T22:02:47.790Z,11.43
2018-01-19T22:05:13.832Z,21.23
2018-01-19T22:07:39.939Z,14.43
2018-01-19T22:10:05.961Z,16.50
2018-01-19T22:12:32.058Z,13.63
2018-01-19T22:14:58.205Z,15.70
2018-01-19T22:17:24.243Z,17.13
2018-01-19T22:19:50.284Z,17.30
2018-01-19T22:22:16.489Z,15.50
2018-01-19T22:24:42.553Z,15.37
2018-01-19T22:27:08.580Z,18.03
2018-01-19T22:29:34.681Z,20.50
2018-01-19T22:32:00.807Z,19.63
2018-01-19T22:34:26.844Z,23.43
2018-01-19T22:36:52.877Z,16.90
2018-01-19T22:39:19.064Z,15.57
2018-01-19T22:41:45.089Z,13.90
2018-01-19T22:44:11.108Z,16.83
2018-01-19T22:46:37.174Z,15.10
2018-01-19T22:49:03.220Z,17.80
2018-01-19T22:51:29.257Z,11.70
2018-01-19T22:53:55.292Z,13.47
2018-01-19T22:56:21.354Z,21.13
2018-01-19T22:58:47.397Z,24.80
2018-01-19T23:01:13.497Z,29.40
2018-01-19T23:03:39.509Z,25.17
2018-01-19T23:06:05.592Z,18.70
2018-01-19T23:08:31.654Z,15.63
2018-01-19T23:10:57.695Z,17.30
2018-01-19T23:13:23.769Z,16.03
2018-01-19T23:15:49.819Z,11.80
2018-01-19T23:18:15.893Z,14.80
2018-01-19T23:20:41.944Z,13.40
2018-01-19T23:23:07.949Z,17.20
2018-01-19T23:25:33.997Z,17.30
2018-01-19T23:28:00.010Z,20.03
2018-01-19T23:30:26.110Z,16.23
2018-01-19T23:32:52.147Z,11.30
2018-01-19T23:35:18.228Z,18.00
2018-01-19T23:37:44.246Z,18.07
2018-01-19T23:40:10.261Z,9.80
2018-01-19T23:42:36.316Z,12.47
2018-01-19T23:45:02.372Z,10.57
2018-01-19T23:47:28.408Z,9.97
2018-01-19T23:49:54.437Z,10.37
2018-01-19T23:52:20.460Z,8.50
2018-01-19T23:54:46.516Z,12.60
2018-01-19T23:57:13.369Z,7.63
2018-01-19T23:59:39.416Z,8.77
